sensor_id;sensor_type;location;lat;lon;timestamp;P1;durP1;ratioP1;P2;durP2;ratioP2
13366;SDS011;6752;52.612;13.630;2023-03-31T00:04:17;12.05;;;3.85;;
13366;SDS011;6752;52.612;13.630;2023-03-31T00:09:20;14.25;;;5.03;;
13366;SDS011;6752;52.612;13.630;2023-03-31T00:14:25;11.07;;;4.33;;
13366;SDS011;6752;52.612;13.630;2023-03-31T00:19:28;14.63;;;4.53;;
13366;SDS011;6752;52.612;13.630;2023-03-31T00:24:30;12.02;;;4.10;;
13366;SDS011;6752;52.612;13.630;2023-03-31T00:29:32;9.52;;;3.85;;
13366;SDS011;6752;52.612;13.630;2023-03-31T00:34:35;14.10;;;4.75;;
13366;SDS011;6752;52.612;13.630;2023-03-31T00:39:37;13.77;;;4.57;;
13366;SDS011;6752;52.612;13.630;2023-03-31T00:50:24;8.97;;;3.33;;
13366;SDS011;6752;52.612;13.630;2023-03-31T00:55:29;9.80;;;3.20;;
13366;SDS011;6752;52.612;13.630;2023-03-31T01:00:30;11.02;;;3.08;;
13366;SDS011;6752;52.612;13.630;2023-03-31T01:05:33;8.43;;;3.33;;
13366;SDS011;6752;52.612;13.630;2023-03-31T01:10:39;11.07;;;3.40;;
13366;SDS011;6752;52.612;13.630;2023-03-31T01:15:42;9.50;;;3.78;;
13366;SDS011;6752;52.612;13.630;2023-03-31T01:53:02;13.43;;;3.62;;
13366;SDS011;6752;52.612;13.630;2023-03-31T02:03:10;10.38;;;4.03;;
13366;SDS011;6752;52.612;13.630;2023-03-31T02:08:11;8.35;;;3.50;;
13366;SDS011;6752;52.612;13.630;2023-03-31T02:13:19;9.88;;;3.35;;
13366;SDS011;6752;52.612;13.630;2023-03-31T02:18:21;8.70;;;3.80;;
13366;SDS011;6752;52.612;13.630;2023-03-31T02:23:24;11.65;;;3.33;;
13366;SDS011;6752;52.612;13.630;2023-03-31T02:28:25;11.20;;;3.53;;
13366;SDS011;6752;52.612;13.630;2023-03-31T02:33:28;13.65;;;4.07;;
13366;SDS011;6752;52.612;13.630;2023-03-31T02:38:31;16.90;;;3.83;;
13366;SDS011;6752;52.612;13.630;2023-03-31T02:43:33;11.20;;;3.50;;
13366;SDS011;6752;52.612;13.630;2023-03-31T02:48:38;8.23;;;3.17;;
13366;SDS011;6752;52.612;13.630;2023-03-31T02:53:50;11.80;;;3.70;;
13366;SDS011;6752;52.612;13.630;2023-03-31T02:59:04;8.68;;;3.25;;
13366;SDS011;6752;52.612;13.630;2023-03-31T03:09:41;12.75;;;4.18;;
13366;SDS011;6752;52.612;13.630;2023-03-31T03:14:52;10.32;;;3.85;;
13366;SDS011;6752;52.612;13.630;2023-03-31T03:24:55;12.45;;;4.00;;
13366;SDS011;6752;52.612;13.630;2023-03-31T03:29:58;11.07;;;3.53;;
13366;SDS011;6752;52.612;13.630;2023-03-31T03:35:00;8.23;;;3.30;;
13366;SDS011;6752;52.612;13.630;2023-03-31T03:40:02;11.98;;;3.75;;
13366;SDS011;6752;52.612;13.630;2023-03-31T03:45:05;10.40;;;3.20;;
13366;SDS011;6752;52.612;13.630;2023-03-31T03:50:07;8.67;;;3.10;;
13366;SDS011;6752;52.612;13.630;2023-03-31T03:55:10;9.70;;;4.28;;
13366;SDS011;6752;52.612;13.630;2023-03-31T04:00:12;9.00;;;3.75;;
13366;SDS011;6752;52.612;13.630;2023-03-31T04:05:14;9.35;;;3.83;;
13366;SDS011;6752;52.612;13.630;2023-03-31T04:10:17;9.32;;;3.08;;
13366;SDS011;6752;52.612;13.630;2023-03-31T04:15:19;17.50;;;3.42;;
13366;SDS011;6752;52.612;13.630;2023-03-31T04:20:21;9.05;;;3.70;;
13366;SDS011;6752;52.612;13.630;2023-03-31T04:25:24;9.45;;;3.40;;
13366;SDS011;6752;52.612;13.630;2023-03-31T04:30:26;9.50;;;3.78;;
13366;SDS011;6752;52.612;13.630;2023-03-31T04:35:32;9.40;;;3.40;;
13366;SDS011;6752;52.612;13.630;2023-03-31T04:40:44;15.00;;;4.10;;
13366;SDS011;6752;52.612;13.630;2023-03-31T04:45:49;5.82;;;2.97;;
13366;SDS011;6752;52.612;13.630;2023-03-31T04:50:51;9.52;;;4.18;;
13366;SDS011;6752;52.612;13.630;2023-03-31T04:55:53;11.15;;;3.72;;
13366;SDS011;6752;52.612;13.630;2023-03-31T05:00:56;11.35;;;3.87;;
13366;SDS011;6752;52.612;13.630;2023-03-31T05:05:58;11.25;;;3.95;;
13366;SDS011;6752;52.612;13.630;2023-03-31T05:11:01;9.93;;;3.58;;
13366;SDS011;6752;52.612;13.630;2023-03-31T05:16:06;11.93;;;4.07;;
13366;SDS011;6752;52.612;13.630;2023-03-31T05:21:14;9.60;;;4.13;;
13366;SDS011;6752;52.612;13.630;2023-03-31T05:26:16;8.27;;;3.50;;
13366;SDS011;6752;52.612;13.630;2023-03-31T05:31:19;11.50;;;3.40;;
13366;SDS011;6752;52.612;13.630;2023-03-31T05:36:21;7.15;;;3.33;;
13366;SDS011;6752;52.612;13.630;2023-03-31T05:41:23;9.30;;;3.80;;
13366;SDS011;6752;52.612;13.630;2023-03-31T05:46:26;9.65;;;3.60;;
13366;SDS011;6752;52.612;13.630;2023-03-31T05:51:28;11.65;;;4.07;;
13366;SDS011;6752;52.612;13.630;2023-03-31T05:56:30;12.23;;;3.62;;
13366;SDS011;6752;52.612;13.630;2023-03-31T06:01:33;9.10;;;4.05;;
13366;SDS011;6752;52.612;13.630;2023-03-31T06:06:35;11.98;;;4.10;;
13366;SDS011;6752;52.612;13.630;2023-03-31T06:11:37;9.98;;;4.28;;
13366;SDS011;6752;52.612;13.630;2023-03-31T06:16:40;13.02;;;4.25;;
13366;SDS011;6752;52.612;13.630;2023-03-31T06:21:42;8.07;;;3.55;;
13366;SDS011;6752;52.612;13.630;2023-03-31T06:26:44;13.48;;;3.50;;
13366;SDS011;6752;52.612;13.630;2023-03-31T06:31:47;7.53;;;3.50;;
13366;SDS011;6752;52.612;13.630;2023-03-31T06:36:49;9.27;;;3.58;;
13366;SDS011;6752;52.612;13.630;2023-03-31T06:41:52;11.40;;;4.30;;
13366;SDS011;6752;52.612;13.630;2023-03-31T06:46:55;10.55;;;4.10;;
13366;SDS011;6752;52.612;13.630;2023-03-31T06:51:57;8.20;;;2.97;;
13366;SDS011;6752;52.612;13.630;2023-03-31T06:57:00;13.50;;;4.40;;
13366;SDS011;6752;52.612;13.630;2023-03-31T07:02:02;13.35;;;3.85;;
13366;SDS011;6752;52.612;13.630;2023-03-31T07:07:04;12.48;;;3.75;;
13366;SDS011;6752;52.612;13.630;2023-03-31T07:12:07;13.10;;;4.00;;
13366;SDS011;6752;52.612;13.630;2023-03-31T07:17:09;9.70;;;3.08;;
13366;SDS011;6752;52.612;13.630;2023-03-31T07:22:13;14.43;;;4.00;;
13366;SDS011;6752;52.612;13.630;2023-03-31T07:27:14;12.55;;;3.50;;
13366;SDS011;6752;52.612;13.630;2023-03-31T07:32:17;12.35;;;3.75;;
13366;SDS011;6752;52.612;13.630;2023-03-31T07:37:19;12.30;;;3.90;;
13366;SDS011;6752;52.612;13.630;2023-03-31T07:42:22;11.68;;;3.85;;
13366;SDS011;6752;52.612;13.630;2023-03-31T07:47:24;14.85;;;3.50;;
13366;SDS011;6752;52.612;13.630;2023-03-31T07:52:26;10.93;;;3.53;;
13366;SDS011;6752;52.612;13.630;2023-03-31T07:57:29;11.65;;;3.35;;
13366;SDS011;6752;52.612;13.630;2023-03-31T08:02:31;12.32;;;3.10;;
13366;SDS011;6752;52.612;13.630;2023-03-31T08:07:34;10.13;;;2.75;;
13366;SDS011;6752;52.612;13.630;2023-03-31T08:12:37;9.50;;;2.60;;
13366;SDS011;6752;52.612;13.630;2023-03-31T08:17:39;14.38;;;3.67;;
13366;SDS011;6752;52.612;13.630;2023-03-31T08:22:42;11.15;;;3.83;;
13366;SDS011;6752;52.612;13.630;2023-03-31T08:27:44;8.98;;;2.85;;
13366;SDS011;6752;52.612;13.630;2023-03-31T08:32:46;13.02;;;3.87;;
13366;SDS011;6752;52.612;13.630;2023-03-31T08:37:49;16.85;;;5.87;;
13366;SDS011;6752;52.612;13.630;2023-03-31T08:43:01;23.60;;;11.95;;
13366;SDS011;6752;52.612;13.630;2023-03-31T08:48:20;16.40;;;6.35;;
13366;SDS011;6752;52.612;13.630;2023-03-31T08:53:34;19.00;;;3.83;;
13366;SDS011;6752;52.612;13.630;2023-03-31T09:04:41;10.00;;;3.22;;
13366;SDS011;6752;52.612;13.630;2023-03-31T09:09:01;11.25;;;3.53;;
13366;SDS011;6752;52.612;13.630;2023-03-31T09:14:11;13.35;;;3.25;;
13366;SDS011;6752;52.612;13.630;2023-03-31T09:19:15;9.90;;;4.60;;
13366;SDS011;6752;52.612;13.630;2023-03-31T09:24:35;14.55;;;5.12;;
13366;SDS011;6752;52.612;13.630;2023-03-31T09:29:46;12.50;;;3.55;;
13366;SDS011;6752;52.612;13.630;2023-03-31T09:34:59;12.47;;;6.57;;
13366;SDS011;6752;52.612;13.630;2023-03-31T09:40:02;11.73;;;3.58;;
13366;SDS011;6752;52.612;13.630;2023-03-31T09:45:04;9.23;;;2.95;;
13366;SDS011;6752;52.612;13.630;2023-03-31T09:50:07;8.13;;;3.03;;
13366;SDS011;6752;52.612;13.630;2023-03-31T10:00:25;8.95;;;3.15;;
13366;SDS011;6752;52.612;13.630;2023-03-31T10:05:37;11.10;;;3.15;;
13366;SDS011;6752;52.612;13.630;2023-03-31T10:10:43;8.75;;;2.90;;
13366;SDS011;6752;52.612;13.630;2023-03-31T10:15:41;11.27;;;2.90;;
13366;SDS011;6752;52.612;13.630;2023-03-31T10:25:51;10.85;;;3.15;;
13366;SDS011;6752;52.612;13.630;2023-03-31T10:30:55;8.23;;;2.80;;
13366;SDS011;6752;52.612;13.630;2023-03-31T10:36:01;12.48;;;3.80;;
13366;SDS011;6752;52.612;13.630;2023-03-31T10:40:59;13.60;;;3.10;;
13366;SDS011;6752;52.612;13.630;2023-03-31T10:46:01;10.93;;;3.87;;
13366;SDS011;6752;52.612;13.630;2023-03-31T10:51:17;11.57;;;2.72;;
13366;SDS011;6752;52.612;13.630;2023-03-31T10:56:31;7.85;;;2.40;;
13366;SDS011;6752;52.612;13.630;2023-03-31T11:06:45;8.63;;;2.90;;
13366;SDS011;6752;52.612;13.630;2023-03-31T11:12:02;8.15;;;3.47;;
13366;SDS011;6752;52.612;13.630;2023-03-31T11:17:04;10.88;;;2.60;;
13366;SDS011;6752;52.612;13.630;2023-03-31T11:27:19;9.38;;;3.08;;
13366;SDS011;6752;52.612;13.630;2023-03-31T11:32:32;8.05;;;3.20;;
13366;SDS011;6752;52.612;13.630;2023-03-31T11:37:42;8.17;;;2.40;;
13366;SDS011;6752;52.612;13.630;2023-03-31T11:42:56;8.17;;;2.40;;
13366;SDS011;6752;52.612;13.630;2023-03-31T11:48:09;6.60;;;1.90;;
13366;SDS011;6752;52.612;13.630;2023-03-31T11:53:06;8.23;;;1.62;;
13366;SDS011;6752;52.612;13.630;2023-03-31T12:03:40;8.85;;;2.87;;
13366;SDS011;6752;52.612;13.630;2023-03-31T12:08:46;9.35;;;2.85;;
13366;SDS011;6752;52.612;13.630;2023-03-31T12:24:13;11.12;;;2.75;;
13366;SDS011;6752;52.612;13.630;2023-03-31T12:29:21;9.45;;;2.58;;
13366;SDS011;6752;52.612;13.630;2023-03-31T12:34:20;9.25;;;2.17;;
13366;SDS011;6752;52.612;13.630;2023-03-31T12:39:28;6.00;;;1.80;;
13366;SDS011;6752;52.612;13.630;2023-03-31T12:44:54;9.57;;;2.37;;
13366;SDS011;6752;52.612;13.630;2023-03-31T12:50:02;8.85;;;2.72;;
13366;SDS011;6752;52.612;13.630;2023-03-31T13:15:59;7.93;;;2.30;;
13366;SDS011;6752;52.612;13.630;2023-03-31T13:21:02;5.72;;;1.95;;
13366;SDS011;6752;52.612;13.630;2023-03-31T13:26:04;5.28;;;1.60;;
13366;SDS011;6752;52.612;13.630;2023-03-31T13:31:08;7.12;;;2.53;;
13366;SDS011;6752;52.612;13.630;2023-03-31T13:41:38;6.57;;;2.10;;
13366;SDS011;6752;52.612;13.630;2023-03-31T13:46:48;5.15;;;2.22;;
13366;SDS011;6752;52.612;13.630;2023-03-31T13:51:56;8.57;;;3.10;;
13366;SDS011;6752;52.612;13.630;2023-03-31T13:57:11;11.85;;;4.00;;
13366;SDS011;6752;52.612;13.630;2023-03-31T14:02:11;10.73;;;4.78;;
13366;SDS011;6752;52.612;13.630;2023-03-31T14:12:47;7.22;;;3.62;;
13366;SDS011;6752;52.612;13.630;2023-03-31T14:17:49;7.28;;;3.83;;
13366;SDS011;6752;52.612;13.630;2023-03-31T14:27:59;8.30;;;3.42;;
13366;SDS011;6752;52.612;13.630;2023-03-31T14:33:23;6.25;;;2.87;;
13366;SDS011;6752;52.612;13.630;2023-03-31T14:38:19;5.40;;;2.30;;
13366;SDS011;6752;52.612;13.630;2023-03-31T14:43:25;7.72;;;3.95;;
13366;SDS011;6752;52.612;13.630;2023-03-31T14:48:27;5.65;;;1.92;;
13366;SDS011;6752;52.612;13.630;2023-03-31T14:53:28;4.72;;;2.17;;
13366;SDS011;6752;52.612;13.630;2023-03-31T14:58:31;4.25;;;1.80;;
13366;SDS011;6752;52.612;13.630;2023-03-31T15:03:39;5.40;;;2.10;;
13366;SDS011;6752;52.612;13.630;2023-03-31T15:08:41;4.57;;;2.20;;
13366;SDS011;6752;52.612;13.630;2023-03-31T15:13:44;5.90;;;2.03;;
13366;SDS011;6752;52.612;13.630;2023-03-31T15:18:46;3.97;;;1.98;;
13366;SDS011;6752;52.612;13.630;2023-03-31T15:23:53;4.72;;;2.20;;
13366;SDS011;6752;52.612;13.630;2023-03-31T15:28:56;4.43;;;2.10;;
13366;SDS011;6752;52.612;13.630;2023-03-31T15:33:57;4.82;;;2.20;;
13366;SDS011;6752;52.612;13.630;2023-03-31T15:39:00;3.22;;;1.65;;
13366;SDS011;6752;52.612;13.630;2023-03-31T15:49:49;10.30;;;5.37;;
13366;SDS011;6752;52.612;13.630;2023-03-31T15:54:50;60.67;;;29.77;;
13366;SDS011;6752;52.612;13.630;2023-03-31T15:59:52;29.83;;;11.68;;
13366;SDS011;6752;52.612;13.630;2023-03-31T16:04:58;14.65;;;6.00;;
13366;SDS011;6752;52.612;13.630;2023-03-31T16:10:02;7.40;;;2.97;;
13366;SDS011;6752;52.612;13.630;2023-03-31T16:15:13;5.35;;;2.42;;
13366;SDS011;6752;52.612;13.630;2023-03-31T16:20:24;4.37;;;2.47;;
13366;SDS011;6752;52.612;13.630;2023-03-31T16:25:26;6.50;;;2.80;;
13366;SDS011;6752;52.612;13.630;2023-03-31T16:30:38;4.97;;;2.72;;
13366;SDS011;6752;52.612;13.630;2023-03-31T16:35:40;4.20;;;2.55;;
13366;SDS011;6752;52.612;13.630;2023-03-31T16:40:48;4.53;;;2.12;;
13366;SDS011;6752;52.612;13.630;2023-03-31T16:45:50;3.65;;;1.80;;
13366;SDS011;6752;52.612;13.630;2023-03-31T16:50:53;5.65;;;1.87;;
13366;SDS011;6752;52.612;13.630;2023-03-31T16:55:54;3.78;;;1.87;;
13366;SDS011;6752;52.612;13.630;2023-03-31T17:00:56;3.78;;;1.83;;
13366;SDS011;6752;52.612;13.630;2023-03-31T17:06:03;5.20;;;2.55;;
13366;SDS011;6752;52.612;13.630;2023-03-31T17:11:02;5.50;;;2.55;;
13366;SDS011;6752;52.612;13.630;2023-03-31T17:16:04;5.80;;;2.78;;
13366;SDS011;6752;52.612;13.630;2023-03-31T17:21:07;5.05;;;2.70;;
13366;SDS011;6752;52.612;13.630;2023-03-31T17:26:09;6.82;;;3.30;;
13366;SDS011;6752;52.612;13.630;2023-03-31T17:31:15;8.52;;;5.32;;
13366;SDS011;6752;52.612;13.630;2023-03-31T17:36:19;8.95;;;6.40;;
13366;SDS011;6752;52.612;13.630;2023-03-31T17:41:21;7.10;;;4.37;;
13366;SDS011;6752;52.612;13.630;2023-03-31T17:46:23;10.07;;;6.50;;
13366;SDS011;6752;52.612;13.630;2023-03-31T17:51:26;24.02;;;16.60;;
13366;SDS011;6752;52.612;13.630;2023-03-31T17:56:28;11.07;;;7.68;;
13366;SDS011;6752;52.612;13.630;2023-03-31T18:01:30;9.60;;;7.05;;
13366;SDS011;6752;52.612;13.630;2023-03-31T18:06:33;8.05;;;5.28;;
13366;SDS011;6752;52.612;13.630;2023-03-31T18:11:35;8.30;;;5.97;;
13366;SDS011;6752;52.612;13.630;2023-03-31T18:16:38;12.50;;;8.98;;
13366;SDS011;6752;52.612;13.630;2023-03-31T18:21:40;9.50;;;7.43;;
13366;SDS011;6752;52.612;13.630;2023-03-31T18:26:42;8.25;;;5.62;;
13366;SDS011;6752;52.612;13.630;2023-03-31T18:31:45;27.77;;;14.85;;
13366;SDS011;6752;52.612;13.630;2023-03-31T18:36:47;20.60;;;11.15;;
13366;SDS011;6752;52.612;13.630;2023-03-31T18:41:49;15.77;;;10.43;;
13366;SDS011;6752;52.612;13.630;2023-03-31T18:46:52;14.30;;;8.35;;
13366;SDS011;6752;52.612;13.630;2023-03-31T18:51:54;11.48;;;8.10;;
13366;SDS011;6752;52.612;13.630;2023-03-31T18:56:57;10.02;;;5.70;;
13366;SDS011;6752;52.612;13.630;2023-03-31T19:01:59;9.50;;;5.30;;
13366;SDS011;6752;52.612;13.630;2023-03-31T19:07:01;8.68;;;4.80;;
13366;SDS011;6752;52.612;13.630;2023-03-31T19:12:04;7.80;;;5.47;;
13366;SDS011;6752;52.612;13.630;2023-03-31T19:17:06;8.65;;;6.10;;
13366;SDS011;6752;52.612;13.630;2023-03-31T19:22:08;11.02;;;8.95;;
13366;SDS011;6752;52.612;13.630;2023-03-31T19:27:11;19.40;;;14.38;;
13366;SDS011;6752;52.612;13.630;2023-03-31T19:32:13;16.20;;;12.98;;
13366;SDS011;6752;52.612;13.630;2023-03-31T19:37:16;11.25;;;8.27;;
13366;SDS011;6752;52.612;13.630;2023-03-31T19:42:18;11.10;;;7.95;;
13366;SDS011;6752;52.612;13.630;2023-03-31T19:47:20;11.95;;;7.22;;
13366;SDS011;6752;52.612;13.630;2023-03-31T19:52:23;12.25;;;7.43;;
13366;SDS011;6752;52.612;13.630;2023-03-31T19:57:25;10.85;;;7.50;;
13366;SDS011;6752;52.612;13.630;2023-03-31T20:02:28;9.73;;;6.75;;
13366;SDS011;6752;52.612;13.630;2023-03-31T20:07:31;11.32;;;8.25;;
13366;SDS011;6752;52.612;13.630;2023-03-31T20:12:33;9.70;;;6.87;;
13366;SDS011;6752;52.612;13.630;2023-03-31T20:17:36;12.35;;;7.72;;
13366;SDS011;6752;52.612;13.630;2023-03-31T20:22:38;12.75;;;9.57;;
13366;SDS011;6752;52.612;13.630;2023-03-31T20:27:40;20.80;;;14.00;;
13366;SDS011;6752;52.612;13.630;2023-03-31T20:32:43;15.43;;;13.27;;
13366;SDS011;6752;52.612;13.630;2023-03-31T20:37:45;18.15;;;14.07;;
13366;SDS011;6752;52.612;13.630;2023-03-31T20:42:48;18.45;;;14.27;;
13366;SDS011;6752;52.612;13.630;2023-03-31T20:47:50;24.58;;;17.90;;
13366;SDS011;6752;52.612;13.630;2023-03-31T20:52:53;21.55;;;16.30;;
13366;SDS011;6752;52.612;13.630;2023-03-31T20:57:55;24.55;;;16.58;;
13366;SDS011;6752;52.612;13.630;2023-03-31T21:02:57;15.70;;;13.30;;
13366;SDS011;6752;52.612;13.630;2023-03-31T21:08:00;15.53;;;13.33;;
13366;SDS011;6752;52.612;13.630;2023-03-31T21:13:02;16.55;;;13.23;;
13366;SDS011;6752;52.612;13.630;2023-03-31T21:18:05;16.02;;;12.85;;
13366;SDS011;6752;52.612;13.630;2023-03-31T21:23:07;17.40;;;12.63;;
13366;SDS011;6752;52.612;13.630;2023-03-31T21:28:10;14.87;;;12.07;;
13366;SDS011;6752;52.612;13.630;2023-03-31T21:33:12;15.52;;;10.20;;
13366;SDS011;6752;52.612;13.630;2023-03-31T21:38:14;14.15;;;10.63;;
13366;SDS011;6752;52.612;13.630;2023-03-31T21:43:19;13.17;;;9.93;;
13366;SDS011;6752;52.612;13.630;2023-03-31T21:48:21;15.40;;;8.63;;
13366;SDS011;6752;52.612;13.630;2023-03-31T21:53:24;13.75;;;8.50;;
13366;SDS011;6752;52.612;13.630;2023-03-31T21:58:27;14.57;;;9.57;;
13366;SDS011;6752;52.612;13.630;2023-03-31T22:03:30;15.15;;;10.38;;
13366;SDS011;6752;52.612;13.630;2023-03-31T22:08:32;19.52;;;13.60;;
13366;SDS011;6752;52.612;13.630;2023-03-31T22:13:36;16.10;;;13.60;;
13366;SDS011;6752;52.612;13.630;2023-03-31T22:18:39;13.93;;;11.55;;
13366;SDS011;6752;52.612;13.630;2023-03-31T22:23:43;12.48;;;9.93;;
13366;SDS011;6752;52.612;13.630;2023-03-31T22:28:45;11.88;;;9.38;;
13366;SDS011;6752;52.612;13.630;2023-03-31T22:33:48;12.57;;;9.90;;
13366;SDS011;6752;52.612;13.630;2023-03-31T22:38:50;12.13;;;9.48;;
13366;SDS011;6752;52.612;13.630;2023-03-31T22:43:52;14.82;;;11.30;;
13366;SDS011;6752;52.612;13.630;2023-03-31T22:49:04;13.93;;;10.50;;
13366;SDS011;6752;52.612;13.630;2023-03-31T22:54:06;13.43;;;8.88;;
13366;SDS011;6752;52.612;13.630;2023-03-31T22:59:09;11.38;;;7.10;;
13366;SDS011;6752;52.612;13.630;2023-03-31T23:04:11;10.70;;;6.68;;
13366;SDS011;6752;52.612;13.630;2023-03-31T23:09:14;10.75;;;6.65;;
13366;SDS011;6752;52.612;13.630;2023-03-31T23:14:16;11.93;;;6.62;;
13366;SDS011;6752;52.612;13.630;2023-03-31T23:19:18;9.68;;;6.62;;
13366;SDS011;6752;52.612;13.630;2023-03-31T23:24:21;9.27;;;6.05;;
13366;SDS011;6752;52.612;13.630;2023-03-31T23:29:23;9.80;;;5.93;;
13366;SDS011;6752;52.612;13.630;2023-03-31T23:34:26;11.40;;;6.40;;
13366;SDS011;6752;52.612;13.630;2023-03-31T23:39:28;11.40;;;6.40;;
13366;SDS011;6752;52.612;13.630;2023-03-31T23:44:31;10.73;;;7.75;;
13366;SDS011;6752;52.612;13.630;2023-03-31T23:49:33;11.15;;;6.30;;
13366;SDS011;6752;52.612;13.630;2023-03-31T23:54:35;16.02;;;7.40;;
13366;SDS011;6752;52.612;13.630;2023-03-31T23:59:38;10.13;;;6.78;;
